Time;durP1;ratioP1;P1;durP2;ratioP2;P2;SDS_P1;SDS_P2;PMS_P1;PMS_P2;Temp;Humidity;BMP_temperature;BMP_pressure;BME280_temperature;BME280_humidity;BME280_pressure;Samples;Min_cycle;Max_cycle;Signal;HPM_P1;HPM_P2
2023/02/15 00:01:41;;;;;;;22.73;9.68;;;;;;;;;;5010821;28;20087;-72
2023/02/15 00:04:08;;;;;;;24.65;10.18;;;;;;;;;;5013013;28;20100;-73
2023/02/15 00:06:33;;;;;;;20.20;10.52;;;;;;;;;;5015297;28;20549;-72
2023/02/15 00:08:59;;;;;;;18.33;8.82;;;;;;;;;;5012260;28;20111;-72
2023/02/15 00:11:40;;;;;;;23.83;9.82;;;;;;;;;;5006214;28;20042;-72
2023/02/15 00:14:06;;;;;;;21.00;11.05;;;;;;;;;;5011773;28;20044;-73
2023/02/15 00:16:32;;;;;;;32.45;12.48;;;;;;;;;;5013584;28;20037;-73
2023/02/15 00:19:01;;;;;;;29.92;10.38;;;;;;;;;;5010500;28;20037;-73
2023/02/15 00:21:30;;;;;;;26.38;10.13;;;;;;;;;;5005758;28;20042;-72
2023/02/15 00:23:57;;;;;;;27.77;11.18;;;;;;;;;;5003468;28;20038;-73
2023/02/15 00:26:22;;;;;;;22.73;10.00;;;;;;;;;;5008886;28;20533;-72
2023/02/15 00:28:48;;;;;;;27.63;11.88;;;;;;;;;;5008615;28;20133;-73
2023/02/15 00:31:13;;;;;;;23.83;11.52;;;;;;;;;;5015786;28;20387;-73
2023/02/15 00:33:39;;;;;;;21.25;10.15;;;;;;;;;;5012366;28;20026;-73
2023/02/15 00:36:08;;;;;;;21.15;11.07;;;;;;;;;;5010812;28;20066;-72
2023/02/15 00:38:34;;;;;;;29.70;11.50;;;;;;;;;;5006781;28;20038;-73
2023/02/15 00:41:02;;;;;;;23.95;10.55;;;;;;;;;;5017264;28;20030;-72
2023/02/15 00:43:28;;;;;;;29.02;11.32;;;;;;;;;;5014381;28;20113;-72
2023/02/15 00:45:54;;;;;;;20.05;10.27;;;;;;;;;;5006776;28;20492;-73
2023/02/15 00:48:20;;;;;;;27.48;10.48;;;;;;;;;;5018074;28;20113;-74
2023/02/15 00:50:47;;;;;;;21.52;11.32;;;;;;;;;;5015786;28;20104;-73
2023/02/15 00:53:13;;;;;;;28.48;10.93;;;;;;;;;;5009689;28;20034;-73
2023/02/15 00:55:39;;;;;;;28.45;10.70;;;;;;;;;;5007144;28;20026;-72
2023/02/15 00:58:06;;;;;;;30.75;11.93;;;;;;;;;;5003668;28;20065;-72
2023/02/15 01:00:31;;;;;;;25.25;11.63;;;;;;;;;;5013692;28;20046;-72
2023/02/15 01:02:56;;;;;;;24.63;10.18;;;;;;;;;;5012292;28;20042;-72
2023/02/15 01:05:22;;;;;;;23.10;11.73;;;;;;;;;;5013818;28;20026;-72
2023/02/15 01:07:47;;;;;;;36.08;11.55;;;;;;;;;;5021465;28;20052;-73
2023/02/15 01:10:13;;;;;;;36.80;12.05;;;;;;;;;;5018929;28;20033;-72
2023/02/15 01:12:38;;;;;;;28.30;11.02;;;;;;;;;;5016387;28;20034;-72
2023/02/15 01:15:04;;;;;;;31.15;11.95;;;;;;;;;;5013098;28;20086;-72
2023/02/15 01:17:30;;;;;;;23.85;11.05;;;;;;;;;;5019169;28;20033;-72
2023/02/15 01:19:56;;;;;;;28.42;11.85;;;;;;;;;;5028636;28;20040;-72
2023/02/15 01:22:21;;;;;;;30.05;11.90;;;;;;;;;;5001984;28;20037;-72
2023/02/15 01:24:49;;;;;;;25.17;11.32;;;;;;;;;;5012157;28;20112;-73
2023/02/15 01:27:15;;;;;;;25.98;11.23;;;;;;;;;;5015351;28;20489;-72
2023/02/15 01:29:40;;;;;;;30.95;12.50;;;;;;;;;;5007075;28;20055;-73
2023/02/15 01:32:06;;;;;;;24.90;9.35;;;;;;;;;;5016235;28;20458;-72
2023/02/15 01:34:31;;;;;;;28.98;11.10;;;;;;;;;;5018450;28;20041;-72
2023/02/15 01:36:57;;;;;;;30.63;12.10;;;;;;;;;;5011971;28;20074;-72
2023/02/15 01:39:22;;;;;;;32.83;12.98;;;;;;;;;;5013914;28;20022;-72
2023/02/15 01:41:48;;;;;;;23.67;10.32;;;;;;;;;;5015377;28;20454;-74
2023/02/15 01:44:41;;;;;;;26.75;10.70;;;;;;;;;;5009942;28;20045;-73
2023/02/15 01:47:09;;;;;;;31.63;10.98;;;;;;;;;;5018148;28;20065;-73
2023/02/15 01:49:34;;;;;;;22.23;11.43;;;;;;;;;;5015662;28;20041;-73
2023/02/15 01:52:00;;;;;;;29.75;11.73;;;;;;;;;;5014800;28;20050;-72
2023/02/15 01:54:28;;;;;;;21.13;10.35;;;;;;;;;;5015830;28;20121;-72
2023/02/15 01:57:00;;;;;;;28.52;11.13;;;;;;;;;;5013611;28;20042;-74
2023/02/15 01:59:26;;;;;;;19.30;10.98;;;;;;;;;;5013466;28;20021;-72
2023/02/15 02:01:54;;;;;;;29.67;12.60;;;;;;;;;;5014310;28;20057;-73
2023/02/15 02:04:33;;;;;;;19.23;10.13;;;;;;;;;;5008204;28;20038;-72
2023/02/15 02:06:59;;;;;;;22.95;10.38;;;;;;;;;;5015258;28;20046;-72
2023/02/15 02:09:25;;;;;;;25.20;11.35;;;;;;;;;;5012563;28;20042;-72
2023/02/15 02:11:51;;;;;;;20.88;11.27;;;;;;;;;;5014166;28;20026;-73
2023/02/15 02:14:17;;;;;;;22.63;10.52;;;;;;;;;;5021080;28;20041;-72
2023/02/15 02:17:03;;;;;;;20.83;11.52;;;;;;;;;;5014533;28;20104;-72
2023/02/15 02:20:00;;;;;;;30.88;11.98;;;;;;;;;;5020216;28;20106;-72
2023/02/15 02:22:37;;;;;;;36.35;12.85;;;;;;;;;;5003137;28;20041;-72
2023/02/15 02:25:22;;;;;;;25.08;10.27;;;;;;;;;;5020359;28;20444;-72
2023/02/15 02:28:39;;;;;;;34.95;12.35;;;;;;;;;;5010780;28;20141;-72
2023/02/15 02:31:52;;;;;;;34.78;12.80;;;;;;;;;;5013424;28;20050;-72
2023/02/15 02:34:33;;;;;;;20.88;9.50;;;;;;;;;;4998053;28;20053;-72
2023/02/15 02:37:10;;;;;;;24.33;10.82;;;;;;;;;;5008692;28;20041;-73
2023/02/15 02:39:55;;;;;;;19.33;10.88;;;;;;;;;;5011295;28;20033;-72
2023/02/15 02:43:01;;;;;;;21.30;10.75;;;;;;;;;;5004817;28;20076;-72
2023/02/15 02:45:40;;;;;;;21.65;10.90;;;;;;;;;;4989846;28;20100;-72
2023/02/15 02:48:10;;;;;;;23.10;10.98;;;;;;;;;;5016617;28;20060;-72
2023/02/15 02:50:39;;;;;;;26.15;10.05;;;;;;;;;;5017461;28;20540;-72
2023/02/15 02:53:04;;;;;;;22.58;11.35;;;;;;;;;;5011731;28;20064;-72
2023/02/15 02:55:33;;;;;;;25.10;11.57;;;;;;;;;;5018504;28;20061;-73
2023/02/15 02:58:18;;;;;;;22.25;11.10;;;;;;;;;;5018247;28;20043;-72
2023/02/15 03:00:58;;;;;;;32.22;10.65;;;;;;;;;;5011111;28;20386;-72
2023/02/15 03:03:28;;;;;;;22.55;9.82;;;;;;;;;;5015029;28;20116;-72
2023/02/15 03:05:57;;;;;;;21.60;11.63;;;;;;;;;;5025870;28;20069;-72
2023/02/15 03:08:27;;;;;;;25.63;11.07;;;;;;;;;;5015506;28;20049;-72
2023/02/15 03:10:55;;;;;;;26.23;10.40;;;;;;;;;;5013453;28;20046;-72
2023/02/15 03:13:22;;;;;;;23.73;10.82;;;;;;;;;;5012382;28;20112;-72
2023/02/15 03:18:36;;;;;;;23.92;10.95;;;;;;;;;;5006534;28;20127;-72
2023/02/15 03:21:03;;;;;;;25.27;10.90;;;;;;;;;;5004078;28;20046;-72
2023/02/15 03:23:29;;;;;;;21.00;10.10;;;;;;;;;;5010301;28;20054;-72
2023/02/15 03:26:01;;;;;;;36.28;11.70;;;;;;;;;;5018948;28;20096;-72
2023/02/15 03:28:36;;;;;;;26.33;11.52;;;;;;;;;;5005500;28;20038;-72
2023/02/15 03:31:04;;;;;;;27.52;12.27;;;;;;;;;;5006196;28;20134;-72
2023/02/15 03:33:30;;;;;;;28.95;11.40;;;;;;;;;;5017609;28;20030;-72
2023/02/15 03:36:19;;;;;;;22.60;10.02;;;;;;;;;;5015743;28;20092;-72
2023/02/15 03:39:02;;;;;;;22.38;12.27;;;;;;;;;;4992875;28;20453;-72
2023/02/15 03:41:34;;;;;;;30.95;12.52;;;;;;;;;;5018247;28;20041;-72
2023/02/15 03:44:29;;;;;;;23.60;11.60;;;;;;;;;;5012473;28;20041;-72
2023/02/15 03:47:05;;;;;;;25.20;11.25;;;;;;;;;;5011381;28;20073;-73
2023/02/15 03:49:41;;;;;;;29.15;12.43;;;;;;;;;;5005003;28;20081;-71
2023/02/15 03:52:08;;;;;;;23.92;9.80;;;;;;;;;;4995586;28;20046;-71
2023/02/15 03:54:43;;;;;;;19.30;10.63;;;;;;;;;;5010264;28;20046;-72
2023/02/15 04:02:47;;;;;;;;;;;;;;;;;;5015742;28;20053;-72
2023/02/15 04:05:13;;;;;;;23.27;10.75;;;;;;;;;;5013450;28;20280;-72
2023/02/15 04:07:38;;;;;;;21.60;10.27;;;;;;;;;;5015437;28;20045;-72
2023/02/15 04:12:49;;;;;;;29.95;12.63;;;;;;;;;;5001043;28;20049;-72
2023/02/15 04:17:58;;;;;;;24.50;10.75;;;;;;;;;;5010916;28;20184;-72
2023/02/15 04:25:51;;;;;;;;;;;;;;;;;;5016539;28;20086;-72
2023/02/15 04:28:17;;;;;;;18.50;9.25;;;;;;;;;;5007249;28;19960;-72
2023/02/15 04:30:42;;;;;;;23.83;10.50;;;;;;;;;;5012125;28;20045;-72
2023/02/15 04:33:08;;;;;;;29.52;10.73;;;;;;;;;;5011654;28;20052;-72
2023/02/15 04:35:33;;;;;;;24.33;9.95;;;;;;;;;;5014282;28;20038;-71
2023/02/15 04:37:59;;;;;;;31.77;12.13;;;;;;;;;;5013811;28;20045;-73
2023/02/15 04:40:25;;;;;;;23.30;11.20;;;;;;;;;;5013177;28;20042;-71
2023/02/15 04:42:51;;;;;;;26.70;11.55;;;;;;;;;;5016885;28;20069;-72
2023/02/15 04:45:16;;;;;;;26.30;11.35;;;;;;;;;;5014806;28;20074;-71
2023/02/15 04:47:42;;;;;;;29.55;10.07;;;;;;;;;;5014240;28;20116;-71
2023/02/15 04:50:08;;;;;;;29.27;11.65;;;;;;;;;;5017374;28;20046;-71
2023/02/15 04:52:33;;;;;;;23.95;11.75;;;;;;;;;;5016925;28;20030;-71
2023/02/15 04:54:59;;;;;;;31.77;11.25;;;;;;;;;;5008646;28;20157;-71
2023/02/15 04:57:24;;;;;;;23.65;10.43;;;;;;;;;;5016710;28;20474;-71
2023/02/15 04:59:50;;;;;;;25.88;11.65;;;;;;;;;;5012304;28;20389;-71
2023/02/15 05:02:15;;;;;;;24.70;10.82;;;;;;;;;;5028414;28;20462;-72
2023/02/15 05:04:40;;;;;;;24.98;9.70;;;;;;;;;;5006470;28;20038;-71
2023/02/15 05:07:06;;;;;;;26.27;11.55;;;;;;;;;;5016661;28;20037;-70
2023/02/15 05:09:31;;;;;;;20.02;10.73;;;;;;;;;;5015350;28;20029;-71
2023/02/15 05:11:57;;;;;;;25.20;11.10;;;;;;;;;;5008305;28;20038;-71
2023/02/15 05:14:22;;;;;;;26.13;11.15;;;;;;;;;;5021519;28;20042;-71
2023/02/15 05:16:48;;;;;;;19.02;10.88;;;;;;;;;;5016683;28;20116;-71
2023/02/15 05:19:13;;;;;;;27.55;11.60;;;;;;;;;;5017778;28;20125;-71
2023/02/15 05:21:39;;;;;;;22.10;9.90;;;;;;;;;;5023237;28;20069;-71
2023/02/15 05:28:19;;;;;;;22.58;10.95;;;;;;;;;;5017997;28;20034;-71
2023/02/15 05:29:34;;;;;;;21.55;11.10;;;;;;;;;;5014931;28;20520;-70
2023/02/15 05:32:00;;;;;;;22.45;10.20;;;;;;;;;;5002586;28;20066;-70
2023/02/15 05:34:25;;;;;;;28.77;11.65;;;;;;;;;;5024519;28;20041;-70
2023/02/15 05:36:50;;;;;;;18.77;9.95;;;;;;;;;;5016235;28;20037;-74
2023/02/15 05:39:16;;;;;;;27.75;11.32;;;;;;;;;;5008975;28;20030;-73
2023/02/15 05:41:41;;;;;;;31.48;13.05;;;;;;;;;;5013442;28;20531;-70
2023/02/15 05:44:07;;;;;;;26.27;11.98;;;;;;;;;;5016340;28;20488;-70
2023/02/15 05:46:32;;;;;;;32.58;12.57;;;;;;;;;;5011060;28;20093;-71
2023/02/15 05:48:58;;;;;;;31.20;11.70;;;;;;;;;;5007232;28;20128;-70
2023/02/15 05:51:23;;;;;;;26.48;11.23;;;;;;;;;;5016492;28;20049;-70
2023/02/15 05:53:48;;;;;;;24.67;11.20;;;;;;;;;;5015253;28;20033;-70
2023/02/15 05:56:14;;;;;;;25.17;11.45;;;;;;;;;;5016631;28;20064;-70
2023/02/15 05:58:41;;;;;;;35.33;12.48;;;;;;;;;;5011097;28;20042;-71
2023/02/15 06:01:13;;;;;;;27.25;12.55;;;;;;;;;;5008437;28;20041;-71
2023/02/15 06:03:39;;;;;;;24.00;10.35;;;;;;;;;;5014336;28;20080;-71
2023/02/15 06:06:04;;;;;;;24.80;11.82;;;;;;;;;;5015538;28;20026;-70
2023/02/15 06:08:31;;;;;;;26.42;11.98;;;;;;;;;;5016295;28;20132;-71
2023/02/15 06:10:56;;;;;;;26.58;11.93;;;;;;;;;;5011757;28;20080;-71
2023/02/15 06:13:22;;;;;;;30.63;10.98;;;;;;;;;;5017192;28;20049;-71
2023/02/15 06:15:47;;;;;;;27.30;12.57;;;;;;;;;;5017931;28;20060;-71
2023/02/15 06:18:13;;;;;;;26.85;11.05;;;;;;;;;;5015227;28;20088;-71
2023/02/15 06:20:38;;;;;;;22.17;10.52;;;;;;;;;;5018281;28;20026;-71
2023/02/15 06:23:04;;;;;;;29.00;11.30;;;;;;;;;;5010920;28;20371;-71
2023/02/15 06:25:29;;;;;;;21.40;10.77;;;;;;;;;;5011861;28;20115;-70
2023/02/15 06:27:55;;;;;;;24.13;10.75;;;;;;;;;;5015771;28;20425;-71
2023/02/15 06:30:20;;;;;;;21.08;11.15;;;;;;;;;;5021832;28;20454;-71
2023/02/15 06:32:45;;;;;;;25.60;11.85;;;;;;;;;;5004611;28;20084;-72
2023/02/15 06:35:11;;;;;;;26.48;10.68;;;;;;;;;;5016028;28;20026;-71
2023/02/15 06:37:37;;;;;;;24.25;10.57;;;;;;;;;;5014766;28;20042;-71
2023/02/15 06:40:03;;;;;;;27.23;11.65;;;;;;;;;;5009404;28;20042;-71
2023/02/15 06:42:29;;;;;;;22.05;10.60;;;;;;;;;;5014037;28;20032;-71
2023/02/15 06:44:55;;;;;;;33.05;11.70;;;;;;;;;;5015845;28;20042;-71
2023/02/15 06:47:20;;;;;;;28.30;12.48;;;;;;;;;;5013178;28;20045;-71
2023/02/15 06:49:45;;;;;;;30.67;11.63;;;;;;;;;;5015680;28;20057;-71
2023/02/15 06:52:11;;;;;;;31.45;11.95;;;;;;;;;;5012283;28;20038;-72
2023/02/15 06:54:36;;;;;;;22.08;10.27;;;;;;;;;;5023922;28;20389;-71
2023/02/15 06:57:02;;;;;;;28.42;11.68;;;;;;;;;;5013520;28;20056;-71
2023/02/15 06:59:27;;;;;;;24.10;11.40;;;;;;;;;;5020498;28;20915;-71
2023/02/15 07:01:53;;;;;;;32.28;11.57;;;;;;;;;;5011325;28;20385;-72
2023/02/15 07:04:18;;;;;;;34.90;12.80;;;;;;;;;;5005658;28;20030;-73
2023/02/15 07:06:43;;;;;;;28.98;11.88;;;;;;;;;;5014521;28;20108;-71
2023/02/15 07:09:09;;;;;;;25.50;13.15;;;;;;;;;;5009327;28;20464;-71
2023/02/15 07:14:18;;;;;;;22.58;10.85;;;;;;;;;;5003023;28;20128;-73
2023/02/15 07:16:44;;;;;;;20.98;11.13;;;;;;;;;;5013302;28;20050;-71
2023/02/15 07:19:10;;;;;;;30.25;12.27;;;;;;;;;;5011449;28;21749;-71
2023/02/15 07:21:36;;;;;;;23.77;9.95;;;;;;;;;;5019976;28;20026;-71
2023/02/15 07:24:02;;;;;;;21.75;10.98;;;;;;;;;;5014489;28;20038;-71
2023/02/15 07:26:27;;;;;;;31.30;11.35;;;;;;;;;;5012862;28;20044;-72
2023/02/15 07:28:53;;;;;;;27.25;13.32;;;;;;;;;;5013426;28;20041;-72
2023/02/15 07:31:18;;;;;;;30.52;12.20;;;;;;;;;;5015323;28;20402;-72
2023/02/15 07:33:44;;;;;;;28.48;12.75;;;;;;;;;;5000437;28;20124;-72
2023/02/15 07:36:11;;;;;;;28.05;12.75;;;;;;;;;;5021478;28;20026;-72
2023/02/15 07:38:38;;;;;;;25.17;12.80;;;;;;;;;;5008850;28;20379;-72
2023/02/15 07:41:10;;;;;;;30.88;11.52;;;;;;;;;;5012817;28;20061;-72
2023/02/15 07:43:38;;;;;;;26.55;11.90;;;;;;;;;;5004534;28;20121;-72
2023/02/15 07:46:07;;;;;;;22.40;11.90;;;;;;;;;;5008839;28;20022;-72
2023/02/15 07:48:33;;;;;;;21.17;10.95;;;;;;;;;;5011051;28;20496;-72
2023/02/15 07:50:59;;;;;;;26.95;13.13;;;;;;;;;;5013682;28;20054;-73
2023/02/15 07:53:25;;;;;;;28.20;12.77;;;;;;;;;;5012356;28;20030;-73
2023/02/15 07:55:52;;;;;;;25.80;12.55;;;;;;;;;;5007938;28;20051;-73
2023/02/15 07:58:17;;;;;;;24.67;12.70;;;;;;;;;;5008796;28;20037;-72
2023/02/15 08:01:00;;;;;;;24.70;12.15;;;;;;;;;;5008860;28;20108;-72
2023/02/15 08:03:29;;;;;;;26.48;12.52;;;;;;;;;;5013825;28;20037;-74
2023/02/15 08:05:58;;;;;;;28.02;12.63;;;;;;;;;;5011634;28;20038;-74
2023/02/15 08:08:30;;;;;;;32.42;15.02;;;;;;;;;;5008756;28;20042;-74
2023/02/15 08:14:02;;;;;;;;;;;;;;;;;;4990892;28;20523;-74
2023/02/15 08:16:42;;;;;;;23.90;10.55;;;;;;;;;;5012816;28;19952;-73
2023/02/15 08:19:13;;;;;;;29.00;12.50;;;;;;;;;;5012883;28;20030;-74
2023/02/15 08:21:40;;;;;;;31.52;13.18;;;;;;;;;;5011233;28;20030;-74
2023/02/15 08:24:08;;;;;;;27.13;14.02;;;;;;;;;;5007078;28;20041;-74
2023/02/15 08:26:34;;;;;;;27.98;12.75;;;;;;;;;;5003499;28;20048;-74
2023/02/15 08:29:00;;;;;;;30.58;12.88;;;;;;;;;;5009256;28;20417;-74
2023/02/15 08:31:26;;;;;;;28.95;12.38;;;;;;;;;;5002113;28;20034;-74
2023/02/15 08:33:53;;;;;;;29.35;13.32;;;;;;;;;;5009029;28;20850;-72
2023/02/15 08:36:22;;;;;;;27.40;12.35;;;;;;;;;;4994899;28;20393;-72
2023/02/15 08:38:48;;;;;;;29.35;12.05;;;;;;;;;;4988467;28;20591;-78
2023/02/15 08:41:23;;;;;;;28.35;12.73;;;;;;;;;;5009054;28;20046;-75
2023/02/15 08:43:51;;;;;;;54.38;14.02;;;;;;;;;;5003295;28;20053;-72
2023/02/15 08:46:18;;;;;;;29.42;14.45;;;;;;;;;;5006200;28;20038;-73
2023/02/15 08:48:44;;;;;;;40.65;16.63;;;;;;;;;;5011491;28;20108;-74
2023/02/15 08:51:15;;;;;;;37.33;16.08;;;;;;;;;;5010061;28;20490;-74
2023/02/15 08:53:44;;;;;;;38.72;17.15;;;;;;;;;;5006571;28;20069;-73
2023/02/15 08:56:10;;;;;;;48.90;17.63;;;;;;;;;;5010490;28;20026;-73
2023/02/15 08:58:35;;;;;;;89.60;16.90;;;;;;;;;;4997936;28;20033;-75
2023/02/15 09:01:04;;;;;;;48.05;14.13;;;;;;;;;;5009672;28;20058;-75
2023/02/15 09:03:29;;;;;;;49.10;15.25;;;;;;;;;;5007691;28;20030;-74
2023/02/15 09:05:59;;;;;;;86.95;15.40;;;;;;;;;;5008071;28;20030;-75
2023/02/15 09:08:25;;;;;;;135.73;18.45;;;;;;;;;;4986224;28;20440;-74
2023/02/15 09:10:52;;;;;;;169.05;19.35;;;;;;;;;;5007947;28;20040;-75
2023/02/15 09:13:18;;;;;;;416.55;32.30;;;;;;;;;;5009366;28;20061;-74
2023/02/15 09:15:43;;;;;;;52.38;12.68;;;;;;;;;;5009448;28;20513;-73
2023/02/15 09:18:09;;;;;;;28.50;13.23;;;;;;;;;;5004493;28;20042;-74
2023/02/15 09:20:37;;;;;;;29.73;13.55;;;;;;;;;;5008693;28;20041;-74
2023/02/15 09:23:03;;;;;;;75.25;13.48;;;;;;;;;;5014237;28;20064;-74
2023/02/15 09:25:28;;;;;;;29.67;13.18;;;;;;;;;;5016386;28;20045;-74
2023/02/15 09:27:54;;;;;;;27.40;13.80;;;;;;;;;;5010433;28;20355;-74
2023/02/15 09:30:19;;;;;;;33.42;14.48;;;;;;;;;;5012388;28;20084;-74
2023/02/15 09:32:46;;;;;;;23.42;13.65;;;;;;;;;;5018952;28;20065;-74
2023/02/15 09:35:12;;;;;;;25.75;14.60;;;;;;;;;;5016965;28;20034;-74
2023/02/15 09:37:37;;;;;;;32.65;16.30;;;;;;;;;;5010797;28;20611;-74
2023/02/15 09:40:05;;;;;;;27.33;15.35;;;;;;;;;;5017118;28;20029;-74
2023/02/15 09:42:44;;;;;;;29.42;15.73;;;;;;;;;;5010667;28;20026;-74
2023/02/15 09:45:25;;;;;;;29.95;15.63;;;;;;;;;;5010488;28;20087;-74
2023/02/15 09:48:39;;;;;;;24.70;15.02;;;;;;;;;;5002533;28;20046;-74
2023/02/15 09:51:26;;;;;;;25.48;14.85;;;;;;;;;;4981763;28;20050;-74
2023/02/15 09:54:00;;;;;;;25.15;13.00;;;;;;;;;;5013768;28;20138;-76
2023/02/15 09:56:37;;;;;;;25.10;13.15;;;;;;;;;;5013975;28;20045;-74
2023/02/15 09:59:24;;;;;;;20.98;12.48;;;;;;;;;;5011953;28;20078;-74
2023/02/15 10:02:11;;;;;;;24.15;13.90;;;;;;;;;;5022046;28;20040;-74
2023/02/15 10:04:52;;;;;;;26.25;14.35;;;;;;;;;;5017785;28;20045;-73
2023/02/15 10:07:36;;;;;;;22.48;14.25;;;;;;;;;;4990551;28;20132;-74
2023/02/15 10:10:01;;;;;;;;;;;;;;;;;;5012957;28;20559;-74
2023/02/15 10:12:48;;;;;;;28.58;15.27;;;;;;;;;;5008318;28;19921;-74
2023/02/15 10:15:28;;;;;;;24.63;13.40;;;;;;;;;;5007763;28;20491;-74
2023/02/15 10:18:41;;;;;;;32.33;16.85;;;;;;;;;;4991540;28;20050;-74
2023/02/15 10:21:20;;;;;;;26.98;14.43;;;;;;;;;;4988062;28;20058;-74
2023/02/15 10:24:12;;;;;;;29.73;17.17;;;;;;;;;;5010204;28;20042;-73
2023/02/15 10:26:44;;;;;;;30.40;16.45;;;;;;;;;;4997957;28;20045;-73
2023/02/15 10:29:20;;;;;;;29.40;16.65;;;;;;;;;;4990812;28;20038;-73
2023/02/15 10:31:50;;;;;;;33.47;17.23;;;;;;;;;;5010431;28;20149;-74
2023/02/15 10:34:39;;;;;;;27.88;15.00;;;;;;;;;;5010543;28;20075;-73
2023/02/15 10:37:37;;;;;;;25.25;14.88;;;;;;;;;;4991788;28;20046;-75
2023/02/15 10:40:10;;;;;;;33.28;14.88;;;;;;;;;;5011732;28;20128;-76
2023/02/15 10:42:47;;;;;;;26.58;15.98;;;;;;;;;;5004528;28;20042;-73
2023/02/15 10:45:17;;;;;;;37.30;15.68;;;;;;;;;;5010435;28;20042;-74
2023/02/15 10:48:10;;;;;;;28.38;13.98;;;;;;;;;;5000473;28;20073;-74
2023/02/15 10:50:51;;;;;;;36.60;14.35;;;;;;;;;;5010867;28;20053;-73
2023/02/15 10:53:36;;;;;;;28.73;13.57;;;;;;;;;;5009377;28;20042;-73
2023/02/15 10:56:32;;;;;;;28.73;13.95;;;;;;;;;;5010396;28;20445;-73
2023/02/15 10:59:21;;;;;;;25.70;13.48;;;;;;;;;;5009964;28;20056;-73
2023/02/15 11:01:53;;;;;;;27.80;13.38;;;;;;;;;;5010155;28;20042;-73
2023/02/15 11:04:45;;;;;;;24.38;12.23;;;;;;;;;;5000991;28;20049;-74
2023/02/15 11:07:32;;;;;;;19.75;10.40;;;;;;;;;;5009823;28;20378;-73
2023/02/15 11:10:19;;;;;;;26.02;12.70;;;;;;;;;;5015615;28;20040;-74
2023/02/15 11:12:45;;;;;;;20.77;11.07;;;;;;;;;;5010913;28;20076;-74
2023/02/15 11:15:21;;;;;;;19.58;8.65;;;;;;;;;;5009616;28;20037;-73
2023/02/15 11:17:51;;;;;;;22.42;8.60;;;;;;;;;;5004989;28;20828;-74
2023/02/15 11:20:18;;;;;;;23.33;9.15;;;;;;;;;;5009269;28;20040;-73
2023/02/15 11:22:48;;;;;;;17.08;8.73;;;;;;;;;;5006182;28;20037;-74
2023/02/15 11:25:30;;;;;;;16.83;8.63;;;;;;;;;;5009935;28;20064;-74
2023/02/15 11:27:55;;;;;;;21.65;9.32;;;;;;;;;;5015622;28;20026;-74
2023/02/15 11:30:24;;;;;;;21.83;9.13;;;;;;;;;;5024950;28;20049;-74
2023/02/15 11:32:58;;;;;;;17.60;7.85;;;;;;;;;;4992082;28;20545;-73
2023/02/15 11:35:33;;;;;;;21.92;8.93;;;;;;;;;;5005400;28;21060;-75
2023/02/15 11:38:12;;;;;;;19.75;9.20;;;;;;;;;;5008924;28;20034;-74
2023/02/15 11:40:47;;;;;;;21.40;8.95;;;;;;;;;;5001277;28;20125;-79
2023/02/15 11:43:36;;;;;;;22.15;8.32;;;;;;;;;;5004457;28;20511;-74
2023/02/15 11:46:02;;;;;;;17.42;8.43;;;;;;;;;;5023558;28;20037;-74
2023/02/15 11:48:29;;;;;;;20.83;8.05;;;;;;;;;;5005557;28;20040;-74
2023/02/15 11:50:56;;;;;;;19.85;7.75;;;;;;;;;;5007030;28;20046;-77
2023/02/15 11:53:25;;;;;;;16.33;7.35;;;;;;;;;;5005076;28;20042;-75
2023/02/15 11:55:51;;;;;;;14.10;7.80;;;;;;;;;;5023659;28;20548;-75
2023/02/15 11:58:38;;;;;;;17.83;7.70;;;;;;;;;;5028610;28;20045;-74
2023/02/15 12:01:45;;;;;;;14.82;6.95;;;;;;;;;;5007630;28;20085;-74
2023/02/15 12:04:32;;;;;;;17.48;5.60;;;;;;;;;;4966728;28;20142;-74
2023/02/15 12:07:11;;;;;;;18.65;6.22;;;;;;;;;;5005820;28;20067;-74
2023/02/15 12:09:49;;;;;;;12.52;5.90;;;;;;;;;;4999726;28;20096;-74
2023/02/15 12:12:25;;;;;;;13.85;5.95;;;;;;;;;;5005312;28;20133;-74
2023/02/15 12:14:59;;;;;;;16.55;6.53;;;;;;;;;;5005656;28;20121;-74
2023/02/15 12:17:27;;;;;;;14.27;5.32;;;;;;;;;;5007899;28;20058;-75
2023/02/15 12:19:56;;;;;;;16.65;6.20;;;;;;;;;;5023299;28;20508;-75
2023/02/15 12:22:25;;;;;;;23.33;7.20;;;;;;;;;;5014503;28;20070;-74
2023/02/15 12:24:53;;;;;;;16.95;5.15;;;;;;;;;;5003805;28;20048;-74
2023/02/15 12:27:30;;;;;;;9.70;4.15;;;;;;;;;;4995969;28;20388;-74
2023/02/15 12:30:07;;;;;;;14.40;5.03;;;;;;;;;;5005360;28;20131;-75
2023/02/15 12:32:47;;;;;;;9.15;4.15;;;;;;;;;;4999601;28;20034;-75
2023/02/15 12:35:15;;;;;;;21.95;5.13;;;;;;;;;;5004569;28;20043;-75
2023/02/15 12:37:54;;;;;;;21.50;5.97;;;;;;;;;;4998758;28;20048;-76
2023/02/15 12:40:27;;;;;;;20.23;6.35;;;;;;;;;;5017680;28;20040;-75
2023/02/15 12:42:53;;;;;;;16.50;5.60;;;;;;;;;;5006511;28;20095;-75
2023/02/15 12:45:24;;;;;;;16.35;5.18;;;;;;;;;;5006792;28;20033;-74
2023/02/15 12:48:09;;;;;;;21.25;6.32;;;;;;;;;;5002879;28;20038;-74
2023/02/15 12:50:35;;;;;;;14.70;5.00;;;;;;;;;;5017590;28;20056;-74
2023/02/15 12:53:22;;;;;;;14.00;6.13;;;;;;;;;;5000731;28;20033;-75
2023/02/15 12:55:57;;;;;;;21.50;5.55;;;;;;;;;;5014200;28;20064;-74
2023/02/15 12:58:26;;;;;;;14.68;5.65;;;;;;;;;;4998339;28;20049;-75
2023/02/15 13:01:14;;;;;;;14.60;5.35;;;;;;;;;;5000994;28;20497;-74
2023/02/15 13:03:59;;;;;;;17.92;6.80;;;;;;;;;;5007112;28;20121;-74
2023/02/15 13:06:26;;;;;;;25.92;6.38;;;;;;;;;;4980339;28;20501;-75
2023/02/15 13:08:59;;;;;;;16.20;6.07;;;;;;;;;;5005897;28;20398;-78
2023/02/15 13:11:33;;;;;;;15.10;5.25;;;;;;;;;;5008534;28;20052;-74
2023/02/15 13:14:07;;;;;;;24.50;6.65;;;;;;;;;;5011381;28;20379;-75
2023/02/15 13:16:39;;;;;;;;;;;;;;;;;;4991082;28;20037;-77
2023/02/15 13:19:21;;;;;;;13.38;5.30;;;;;;;;;;5003184;28;19943;-75
2023/02/15 13:21:51;;;;;;;17.20;5.15;;;;;;;;;;5009284;28;20044;-74
2023/02/15 13:24:33;;;;;;;20.02;5.85;;;;;;;;;;5004906;28;20034;-74
2023/02/15 13:26:59;;;;;;;15.55;6.00;;;;;;;;;;5011857;28;20045;-74
2023/02/15 13:29:28;;;;;;;20.92;6.07;;;;;;;;;;5001824;28;20070;-75
2023/02/15 13:31:56;;;;;;;13.38;5.88;;;;;;;;;;5024863;28;20030;-75
2023/02/15 13:34:28;;;;;;;17.00;6.50;;;;;;;;;;5010098;28;20041;-74
2023/02/15 13:37:17;;;;;;;12.95;5.95;;;;;;;;;;5011316;28;20144;-75
2023/02/15 13:39:46;;;;;;;14.05;5.40;;;;;;;;;;5012094;28;20477;-74
2023/02/15 13:42:25;;;;;;;16.70;5.03;;;;;;;;;;5010671;28;20044;-75
2023/02/15 13:45:23;;;;;;;14.60;6.00;;;;;;;;;;4999898;28;20113;-78
2023/02/15 13:48:03;;;;;;;22.77;6.10;;;;;;;;;;5007098;28;20037;-75
2023/02/15 13:50:33;;;;;;;19.42;6.22;;;;;;;;;;5006415;28;20521;-74
2023/02/15 13:53:14;;;;;;;17.77;5.88;;;;;;;;;;5017877;28;20072;-74
2023/02/15 13:55:54;;;;;;;18.90;6.07;;;;;;;;;;4999163;28;20142;-74
2023/02/15 13:59:03;;;;;;;14.68;6.28;;;;;;;;;;5023286;28;20060;-74
2023/02/15 14:01:58;;;;;;;19.67;6.63;;;;;;;;;;4996611;28;20175;-75
2023/02/15 14:04:33;;;;;;;21.45;6.22;;;;;;;;;;5001842;28;20414;-74
2023/02/15 14:07:11;;;;;;;21.75;6.07;;;;;;;;;;4999362;28;20053;-74
2023/02/15 14:09:47;;;;;;;14.38;5.07;;;;;;;;;;5006534;28;20040;-74
2023/02/15 14:12:42;;;;;;;22.88;5.68;;;;;;;;;;5017120;28;20446;-75
2023/02/15 14:15:35;;;;;;;14.02;5.53;;;;;;;;;;5015842;28;20046;-75
2023/02/15 14:18:22;;;;;;;18.77;5.78;;;;;;;;;;5002214;28;20033;-74
2023/02/15 14:21:02;;;;;;;17.30;6.25;;;;;;;;;;5002320;28;20049;-74
2023/02/15 14:23:50;;;;;;;12.70;5.22;;;;;;;;;;5002398;28;20125;-74
2023/02/15 14:26:15;;;;;;;18.02;5.82;;;;;;;;;;5003300;28;20034;-73
2023/02/15 14:29:09;;;;;;;26.88;6.78;;;;;;;;;;4994049;28;20037;-74
2023/02/15 14:31:40;;;;;;;20.63;6.15;;;;;;;;;;4998592;28;20041;-73
2023/02/15 14:34:16;;;;;;;20.88;5.90;;;;;;;;;;5010901;28;20128;-74
2023/02/15 14:36:41;;;;;;;16.50;5.72;;;;;;;;;;4998810;28;20048;-74
2023/02/15 14:42:19;;;;;;;19.73;6.78;;;;;;;;;;5002473;28;20052;-73
2023/02/15 14:44:54;;;;;;;17.65;5.78;;;;;;;;;;5009712;28;20034;-73
2023/02/15 14:47:30;;;;;;;16.92;6.07;;;;;;;;;;5024975;28;20573;-74
2023/02/15 14:49:55;;;;;;;17.10;5.65;;;;;;;;;;5024676;28;20052;-74
2023/02/15 14:52:21;;;;;;;21.90;6.35;;;;;;;;;;5010017;28;20033;-74
2023/02/15 14:54:46;;;;;;;15.45;6.65;;;;;;;;;;5008279;28;20026;-74
2023/02/15 14:57:11;;;;;;;22.13;6.85;;;;;;;;;;5010153;28;20038;-77
2023/02/15 14:59:42;;;;;;;16.67;6.47;;;;;;;;;;5013355;28;20065;-74
2023/02/15 15:02:07;;;;;;;11.80;5.28;;;;;;;;;;4997927;28;20037;-74
2023/02/15 15:04:33;;;;;;;9.45;4.72;;;;;;;;;;5005062;28;20390;-75
2023/02/15 15:07:08;;;;;;;10.18;3.63;;;;;;;;;;5006993;28;20157;-74
2023/02/15 15:09:35;;;;;;;13.38;4.93;;;;;;;;;;5010128;28;20066;-74
2023/02/15 15:12:25;;;;;;;16.85;4.72;;;;;;;;;;4997624;28;20559;-74
2023/02/15 15:14:53;;;;;;;11.65;4.72;;;;;;;;;;4997733;28;20026;-74
2023/02/15 15:17:34;;;;;;;12.27;4.60;;;;;;;;;;5009901;28;20504;-74
2023/02/15 15:20:16;;;;;;;15.25;3.92;;;;;;;;;;5010036;28;20046;-74
2023/02/15 15:22:42;;;;;;;13.45;4.25;;;;;;;;;;5008853;28;20045;-73